Time;durP1;ratioP1;P1;durP2;ratioP2;P2;SDS_P1;SDS_P2;PMS_P1;PMS_P2;Temp;Humidity;BMP_temperature;BMP_pressure;BME280_temperature;BME280_humidity;BME280_pressure;Samples;Min_cycle;Max_cycle;Signal;HPM_P1;HPM_P2
2023/09/03 00:01:11;;;;;;;371.77;333.23;;;26.20;99.90;;;;;;5053248;28;20025;-68
2023/09/03 00:03:38;;;;;;;363.10;323.17;;;26.20;99.90;;;;;;5053456;28;20029;-68
2023/09/03 00:06:05;;;;;;;406.75;348.65;;;26.20;99.90;;;;;;5054391;28;20529;-68
2023/09/03 00:08:31;;;;;;;366.73;322.27;;;26.20;99.90;;;;;;5065957;28;20033;-69
2023/09/03 00:10:58;;;;;;;364.05;322.67;;;26.20;99.90;;;;;;5073207;28;20016;-68
2023/09/03 00:13:25;;;;;;;395.00;329.15;;;26.20;99.90;;;;;;5058891;28;20031;-68
2023/09/03 00:15:51;;;;;;;411.20;338.23;;;26.30;99.90;;;;;;5053152;28;20120;-68
2023/09/03 00:18:18;;;;;;;411.25;345.70;;;26.30;99.90;;;;;;5052982;28;20489;-68
2023/09/03 00:21:05;;;;;;;432.80;367.95;;;26.30;99.90;;;;;;5053124;28;20029;-68
2023/09/03 00:23:32;;;;;;;425.55;355.50;;;26.40;99.90;;;;;;5062393;28;20029;-68
2023/09/03 00:26:00;;;;;;;421.58;359.73;;;26.40;99.90;;;;;;5073067;28;20500;-69
2023/09/03 00:28:27;;;;;;;451.17;394.98;;;26.50;99.90;;;;;;5073020;28;20123;-68
2023/09/03 00:31:03;;;;;;;475.05;410.48;;;26.50;99.90;;;;;;5072858;28;20024;-68
2023/09/03 00:33:31;;;;;;;451.25;389.27;;;26.60;99.90;;;;;;5072881;28;20099;-68
2023/09/03 00:36:00;;;;;;;448.42;389.20;;;26.70;99.90;;;;;;5072891;28;20021;-68
2023/09/03 00:38:26;;;;;;;447.58;373.05;;;26.70;99.90;;;;;;5073259;28;20033;-68
2023/09/03 00:40:53;;;;;;;462.77;400.83;;;26.80;99.90;;;;;;5073020;28;20377;-68
2023/09/03 00:43:20;;;;;;;447.50;382.00;;;26.90;99.90;;;;;;5072810;28;20031;-68
2023/09/03 00:45:48;;;;;;;437.73;381.50;;;26.90;99.90;;;;;;5072902;28;20029;-69
2023/09/03 00:48:20;;;;;;;438.50;374.80;;;27.00;99.90;;;;;;5070644;28;20033;-68
2023/09/03 00:50:47;;;;;;;442.15;378.80;;;27.10;99.90;;;;;;5062792;28;20060;-68
2023/09/03 00:53:16;;;;;;;427.40;375.73;;;27.20;99.90;;;;;;5065011;28;20024;-68
2023/09/03 00:55:43;;;;;;;399.98;349.25;;;27.30;99.90;;;;;;5072736;28;20021;-68
2023/09/03 00:58:11;;;;;;;298.55;246.38;;;27.30;99.90;;;;;;5072664;28;20074;-68
2023/09/03 01:00:38;;;;;;;206.60;146.25;;;27.40;99.90;;;;;;5072620;28;20060;-68
2023/09/03 01:03:05;;;;;;;206.38;167.55;;;27.40;99.90;;;;;;5072760;28;20021;-68
2023/09/03 01:05:32;;;;;;;195.18;156.73;;;27.50;99.90;;;;;;5070410;28;20024;-68
2023/09/03 01:08:00;;;;;;;185.38;126.13;;;27.60;99.90;;;;;;5056035;28;20107;-68
2023/09/03 01:10:40;;;;;;;204.65;155.70;;;27.60;99.90;;;;;;5056308;28;20021;-68
2023/09/03 01:13:25;;;;;;;204.32;142.50;;;27.70;99.90;;;;;;5056226;28;20032;-68
2023/09/03 01:15:53;;;;;;;207.43;139.82;;;27.70;99.90;;;;;;5056163;28;20104;-68
2023/09/03 01:18:24;;;;;;;223.88;159.40;;;27.80;99.90;;;;;;5056082;28;20048;-68
2023/09/03 01:20:53;;;;;;;211.68;153.63;;;27.80;99.90;;;;;;5055998;28;20390;-68
2023/09/03 01:23:22;;;;;;;206.70;152.57;;;27.90;99.90;;;;;;5055840;28;20056;-68
2023/09/03 01:25:49;;;;;;;191.23;140.35;;;27.90;99.90;;;;;;5055969;28;20096;-68
2023/09/03 01:28:29;;;;;;;178.57;132.63;;;28.00;99.90;;;;;;5055955;28;20025;-68
2023/09/03 01:31:08;;;;;;;185.15;151.27;;;28.10;99.90;;;;;;5056212;28;20044;-68
2023/09/03 01:33:39;;;;;;;163.32;119.57;;;28.20;99.90;;;;;;5035922;28;20474;-68
2023/09/03 01:36:09;;;;;;;139.20;109.88;;;28.20;99.90;;;;;;5035746;28;20029;-68
2023/09/03 01:38:37;;;;;;;118.43;91.15;;;28.30;99.90;;;;;;5035853;28;20026;-68
2023/09/03 01:41:04;;;;;;;138.35;93.88;;;28.40;99.90;;;;;;5035709;28;20105;-68
2023/09/03 01:43:31;;;;;;;140.07;104.90;;;28.40;99.90;;;;;;5035939;28;20022;-68
2023/09/03 01:46:13;;;;;;;126.80;99.05;;;28.50;99.90;;;;;;5035768;28;20025;-68
2023/09/03 01:49:20;;;;;;;108.53;88.25;;;28.50;99.90;;;;;;5035473;28;20045;-67
2023/09/03 01:52:03;;;;;;;115.43;85.75;;;28.60;99.90;;;;;;5031429;28;20099;-68
2023/09/03 01:54:41;;;;;;;114.53;80.65;;;28.70;99.90;;;;;;5035612;28;20052;-68
2023/09/03 01:57:16;;;;;;;99.72;77.10;;;28.80;99.90;;;;;;5035419;28;20425;-68
2023/09/03 01:59:46;;;;;;;120.40;85.90;;;28.90;99.90;;;;;;5035503;28;20530;-68
2023/09/03 02:02:14;;;;;;;116.03;87.90;;;28.90;99.90;;;;;;5035446;28;20033;-68
2023/09/03 02:04:41;;;;;;;97.70;75.53;;;29.00;99.90;;;;;;5035596;28;20035;-68
2023/09/03 02:07:08;;;;;;;95.53;74.70;;;29.00;99.90;;;;;;5035231;28;20033;-68
2023/09/03 02:09:35;;;;;;;84.57;67.40;;;29.10;99.90;;;;;;5035483;28;20033;-68
2023/09/03 02:12:05;;;;;;;89.15;59.55;;;29.20;99.90;;;;;;5035201;28;20053;-67
2023/09/03 02:14:32;;;;;;;84.97;62.63;;;29.30;99.90;;;;;;5035315;28;20056;-68
2023/09/03 02:16:58;;;;;;;75.72;64.00;;;29.30;99.90;;;;;;5034635;28;20109;-68
2023/09/03 02:19:25;;;;;;;92.82;75.72;;;29.30;99.90;;;;;;5055611;28;20062;-70
2023/09/03 02:21:52;;;;;;;83.00;64.05;;;29.40;99.90;;;;;;5075060;28;20047;-69
2023/09/03 02:24:19;;;;;;;86.03;66.05;;;29.50;99.90;;;;;;5074878;28;20064;-68
2023/09/03 02:26:46;;;;;;;83.05;57.72;;;29.60;99.90;;;;;;5075068;28;20032;-67
2023/09/03 02:29:13;;;;;;;77.15;61.33;;;29.60;99.90;;;;;;5074841;28;20021;-68
2023/09/03 02:31:40;;;;;;;87.55;72.78;;;29.80;99.90;;;;;;5074837;28;20012;-68
2023/09/03 02:34:07;;;;;;;76.72;60.08;;;29.80;99.90;;;;;;5073423;28;20511;-68
2023/09/03 02:36:35;;;;;;;76.22;66.10;;;29.90;99.90;;;;;;5074820;28;20017;-68
2023/09/03 02:39:04;;;;;;;73.38;65.47;;;29.90;99.90;;;;;;5074783;28;20074;-68
2023/09/03 02:41:31;;;;;;;72.82;64.82;;;29.90;99.90;;;;;;5074998;28;20525;-68
2023/09/03 02:44:00;;;;;;;76.60;65.78;;;30.00;99.90;;;;;;5074693;28;20025;-68
2023/09/03 02:46:28;;;;;;;70.57;58.33;;;30.10;99.90;;;;;;5074222;28;20059;-68
2023/09/03 02:48:54;;;;;;;73.22;65.20;;;30.20;99.90;;;;;;5071717;28;20397;-69
2023/09/03 02:51:21;;;;;;;103.00;92.28;;;30.20;99.90;;;;;;5055869;28;20049;-68
2023/09/03 02:53:51;;;;;;;98.93;88.97;;;30.30;99.90;;;;;;5069674;28;20023;-68
2023/09/03 02:56:17;;;;;;;103.45;93.03;;;30.40;99.90;;;;;;5074355;28;20020;-68
2023/09/03 02:58:48;;;;;;;86.80;77.53;;;30.50;99.90;;;;;;5074884;28;20055;-68
2023/09/03 03:01:17;;;;;;;103.90;93.45;;;30.60;99.90;;;;;;5054954;28;20028;-68
2023/09/03 03:03:44;;;;;;;74.97;67.03;;;30.60;99.90;;;;;;5055004;28;20017;-69
2023/09/03 03:06:11;;;;;;;88.20;73.93;;;30.60;99.90;;;;;;5054631;28;20060;-68
2023/09/03 03:08:38;;;;;;;61.45;52.38;;;30.70;99.90;;;;;;5054451;28;20052;-68
2023/09/03 03:11:09;;;;;;;71.90;64.38;;;30.70;99.90;;;;;;5067244;28;20377;-69
2023/09/03 03:13:37;;;;;;;67.32;60.17;;;30.70;99.90;;;;;;5074582;28;20534;-68
2023/09/03 03:16:09;;;;;;;76.97;69.25;;;30.80;99.90;;;;;;5065020;28;20029;-69
2023/09/03 03:18:37;;;;;;;74.53;66.03;;;30.80;99.90;;;;;;5061782;28;20021;-69
2023/09/03 03:21:07;;;;;;;98.10;88.10;;;30.80;99.90;;;;;;5061993;28;20052;-69
2023/09/03 03:23:36;;;;;;;87.82;78.95;;;30.90;99.90;;;;;;5074062;28;20020;-70
2023/09/03 03:26:04;;;;;;;92.78;83.70;;;30.90;99.90;;;;;;5074179;28;20081;-69
2023/09/03 03:28:32;;;;;;;89.97;80.60;;;31.00;99.90;;;;;;5069548;28;20036;-68
2023/09/03 03:31:09;;;;;;;115.63;103.75;;;31.00;99.90;;;;;;5053446;28;20025;-70
2023/09/03 03:33:37;;;;;;;87.00;75.20;;;31.10;99.90;;;;;;5053739;28;20017;-69
2023/09/03 03:36:04;;;;;;;119.75;107.43;;;31.10;99.90;;;;;;5053595;28;20036;-69
2023/09/03 03:38:31;;;;;;;120.00;107.28;;;31.20;99.90;;;;;;5053476;28;20486;-69
2023/09/03 03:41:09;;;;;;;111.13;96.75;;;31.30;99.90;;;;;;5053796;28;20370;-71
2023/09/03 03:43:37;;;;;;;100.63;83.00;;;31.30;99.90;;;;;;5052599;28;20078;-70
2023/09/03 03:46:05;;;;;;;83.95;59.10;;;31.30;99.90;;;;;;5051207;28;20377;-69
2023/09/03 03:48:35;;;;;;;130.70;92.22;;;31.30;99.90;;;;;;5052299;28;20561;-69
2023/09/03 03:51:02;;;;;;;149.52;98.30;;;31.30;99.90;;;;;;5052712;28;20377;-72
2023/09/03 03:53:29;;;;;;;149.25;100.28;;;31.40;99.90;;;;;;5052379;28;20024;-71
2023/09/03 03:56:00;;;;;;;152.40;100.50;;;31.40;99.90;;;;;;5050300;28;20017;-71
2023/09/03 03:58:28;;;;;;;165.75;102.60;;;31.50;99.90;;;;;;5053199;28;20033;-71
2023/09/03 04:00:55;;;;;;;152.90;99.15;;;31.40;99.90;;;;;;5052974;28;20025;-70
2023/09/03 04:03:23;;;;;;;180.27;117.28;;;31.40;99.90;;;;;;5051978;28;20108;-68
2023/09/03 04:05:58;;;;;;;168.77;112.00;;;31.50;99.90;;;;;;5053243;28;20490;-69
2023/09/03 04:08:27;;;;;;;171.60;129.68;;;31.40;99.90;;;;;;5053196;28;20040;-69
2023/09/03 04:10:57;;;;;;;173.52;126.35;;;31.40;99.90;;;;;;5053158;28;20108;-68
2023/09/03 04:13:25;;;;;;;173.82;132.20;;;31.40;99.90;;;;;;5053200;28;20020;-69
2023/09/03 04:15:51;;;;;;;162.27;131.65;;;31.40;99.90;;;;;;5053241;28;20017;-69
2023/09/03 04:18:18;;;;;;;155.32;120.75;;;31.40;99.90;;;;;;5053173;28;20085;-67
2023/09/03 04:20:44;;;;;;;159.00;141.13;;;31.40;99.90;;;;;;5053025;28;20033;-67
2023/09/03 04:23:11;;;;;;;131.63;110.68;;;31.40;99.90;;;;;;5053113;28;20033;-69
2023/09/03 04:25:38;;;;;;;133.43;119.10;;;31.30;99.90;;;;;;5053101;28;20027;-70
2023/09/03 04:28:05;;;;;;;140.85;126.00;;;31.30;99.90;;;;;;5053402;28;20025;-69
2023/09/03 04:30:31;;;;;;;225.57;202.88;;;31.30;99.90;;;;;;5053314;28;20023;-69
2023/09/03 04:32:58;;;;;;;324.25;293.38;;;31.40;99.90;;;;;;5053032;28;20013;-69
2023/09/03 04:35:24;;;;;;;303.90;275.45;;;31.60;99.90;;;;;;5052926;28;20037;-71
2023/09/03 04:37:51;;;;;;;372.13;335.40;;;31.70;99.90;;;;;;5052939;28;20021;-67
2023/09/03 04:40:18;;;;;;;303.65;274.63;;;31.80;99.90;;;;;;5053577;28;20065;-68
2023/09/03 04:42:44;;;;;;;234.75;213.70;;;31.90;99.90;;;;;;5057061;28;20478;-70
2023/09/03 04:45:11;;;;;;;417.30;375.13;;;31.90;99.90;;;;;;5057759;28;20021;-69
2023/09/03 04:47:38;;;;;;;412.88;370.98;;;31.90;99.90;;;;;;5056176;28;20397;-69
2023/09/03 04:50:05;;;;;;;417.65;375.92;;;31.90;99.90;;;;;;5058190;28;20033;-70
2023/09/03 04:52:31;;;;;;;417.35;374.88;;;32.00;99.90;;;;;;5077521;28;20021;-69
2023/09/03 04:54:58;;;;;;;387.17;348.98;;;32.20;99.90;;;;;;5074121;28;20036;-69
2023/09/03 04:57:24;;;;;;;377.58;340.40;;;32.20;99.90;;;;;;5059664;28;20076;-71
2023/09/03 04:59:51;;;;;;;326.85;295.83;;;32.30;99.90;;;;;;5077041;28;20052;-71
2023/09/03 05:02:18;;;;;;;358.45;323.60;;;32.40;99.90;;;;;;5076472;28;20027;-68
2023/09/03 05:04:44;;;;;;;347.95;314.20;;;32.50;99.90;;;;;;5075475;28;20110;-69
2023/09/03 05:07:11;;;;;;;413.15;371.52;;;32.50;99.90;;;;;;5071873;28;20029;-65
2023/09/03 05:09:37;;;;;;;416.08;374.13;;;32.70;99.90;;;;;;5067191;28;20016;-68
2023/09/03 05:12:04;;;;;;;438.27;393.75;;;32.80;99.90;;;;;;5076300;28;20107;-69
2023/09/03 05:14:31;;;;;;;449.77;404.20;;;32.70;99.90;;;;;;5075763;28;20020;-68
2023/09/03 05:16:57;;;;;;;435.80;391.65;;;32.60;99.90;;;;;;5075502;28;20013;-68
2023/09/03 05:19:24;;;;;;;450.95;405.30;;;32.60;99.90;;;;;;5077074;28;20052;-69
2023/09/03 05:21:50;;;;;;;435.58;391.67;;;32.70;99.90;;;;;;5077441;28;20477;-70
2023/09/03 05:24:17;;;;;;;456.27;409.92;;;32.70;99.90;;;;;;5077551;28;20074;-69
2023/09/03 05:26:44;;;;;;;466.48;419.02;;;32.80;99.90;;;;;;5077273;28;20170;-69
2023/09/03 05:29:10;;;;;;;488.52;439.13;;;32.90;99.90;;;;;;5077140;28;20056;-70
2023/09/03 05:31:37;;;;;;;489.55;439.95;;;32.90;99.90;;;;;;5077445;28;20052;-69
2023/09/03 05:34:03;;;;;;;505.58;454.45;;;32.80;99.90;;;;;;5076467;28;20032;-70
2023/09/03 05:36:30;;;;;;;873.60;788.42;;;32.80;99.90;;;;;;5076917;28;20025;-70
2023/09/03 05:38:57;;;;;;;936.13;841.30;;;32.80;99.90;;;;;;5076294;28;20028;-70
2023/09/03 05:41:23;;;;;;;1090.60;984.40;;;32.80;99.90;;;;;;5076127;28;20021;-70
2023/09/03 05:43:54;;;;;;;973.42;879.35;;;32.80;99.90;;;;;;5076373;28;20436;-70
2023/09/03 05:46:20;;;;;;;1168.63;999.90;;;32.70;99.90;;;;;;5076387;28;20209;-70
2023/09/03 05:48:56;;;;;;;947.03;856.53;;;32.70;99.90;;;;;;5076565;28;20492;-70
2023/09/03 05:51:22;;;;;;;1287.22;999.90;;;32.70;99.90;;;;;;5076206;28;20500;-70
2023/09/03 05:53:49;;;;;;;1311.93;999.90;;;32.80;99.70;;;;;;5075282;28;20020;-69
2023/09/03 05:56:15;;;;;;;1233.97;999.90;;;32.90;99.90;;;;;;5076008;28;20032;-71
2023/09/03 05:58:42;;;;;;;1085.65;977.63;;;33.00;99.90;;;;;;5071621;28;20029;-70
2023/09/03 06:01:11;;;;;;;1295.85;999.90;;;33.10;99.80;;;;;;5067561;28;20021;-68
2023/09/03 06:03:39;;;;;;;1071.40;966.92;;;33.00;99.40;;;;;;5075944;28;20039;-70
2023/09/03 06:06:07;;;;;;;1208.40;999.90;;;33.00;99.20;;;;;;5075677;28;20060;-68
2023/09/03 06:08:35;;;;;;;1252.10;999.90;;;33.20;99.70;;;;;;5074011;28;20029;-68
2023/09/03 06:11:03;;;;;;;1149.10;999.90;;;33.20;99.70;;;;;;5065370;28;20029;-68
2023/09/03 06:13:31;;;;;;;1338.97;999.90;;;33.20;98.80;;;;;;5056270;28;20021;-68
2023/09/03 06:15:58;;;;;;;1371.45;999.90;;;33.20;98.00;;;;;;5065965;28;20025;-68
2023/09/03 06:18:25;;;;;;;1242.65;999.90;;;33.30;97.90;;;;;;5075311;28;20416;-69
2023/09/03 06:20:52;;;;;;;1336.03;999.90;;;33.50;97.70;;;;;;5075002;28;20032;-71
2023/09/03 06:23:20;;;;;;;1495.07;999.90;;;33.50;98.00;;;;;;5074736;28;20021;-71
2023/09/03 06:25:48;;;;;;;1210.18;999.90;;;33.60;96.80;;;;;;5074921;28;20029;-70
2023/09/03 06:28:15;;;;;;;1118.57;999.90;;;33.50;95.50;;;;;;5074994;28;20452;-71
2023/09/03 06:30:42;;;;;;;1271.75;999.90;;;33.60;95.00;;;;;;5074800;28;20031;-68
2023/09/03 06:33:11;;;;;;;1284.35;999.90;;;33.50;95.40;;;;;;5070885;28;20031;-69
2023/09/03 06:35:38;;;;;;;1384.15;999.90;;;33.60;95.90;;;;;;5053033;28;20508;-69
2023/09/03 06:38:04;;;;;;;1209.15;999.90;;;33.70;96.40;;;;;;5054322;28;20501;-68
2023/09/03 06:40:31;;;;;;;1257.03;999.90;;;33.60;96.30;;;;;;5053890;28;20525;-68
2023/09/03 06:42:58;;;;;;;1350.63;999.90;;;33.60;96.70;;;;;;5054020;28;20028;-70
2023/09/03 06:45:25;;;;;;;1384.80;999.90;;;33.60;96.30;;;;;;5053850;28;20028;-70
2023/09/03 06:47:51;;;;;;;1496.85;999.90;;;33.50;96.30;;;;;;5052863;28;20044;-70
2023/09/03 06:50:18;;;;;;;1464.68;999.90;;;33.60;96.30;;;;;;5061501;28;20028;-64
2023/09/03 06:52:44;;;;;;;1551.20;999.90;;;33.70;96.50;;;;;;5060071;28;20347;-68
2023/09/03 06:55:11;;;;;;;1542.70;999.90;;;33.80;96.40;;;;;;5052061;28;20390;-68
2023/09/03 06:57:37;;;;;;;1547.05;999.90;;;33.80;96.20;;;;;;5052877;28;20600;-69
2023/09/03 07:00:06;;;;;;;1509.88;999.90;;;33.90;96.20;;;;;;5057145;28;20060;-68
2023/09/03 07:02:32;;;;;;;1519.75;999.90;;;33.80;95.70;;;;;;5051429;28;20033;-68
2023/09/03 07:05:00;;;;;;;1522.28;999.90;;;33.80;95.60;;;;;;5067353;28;20060;-71
2023/09/03 07:07:29;;;;;;;1461.28;999.90;;;33.70;95.70;;;;;;5072648;28;20123;-69
2023/09/03 07:09:55;;;;;;;1393.40;999.90;;;33.70;95.20;;;;;;5069624;28;20023;-69
2023/09/03 07:12:23;;;;;;;1407.28;999.90;;;33.70;94.70;;;;;;5052693;28;20028;-69
2023/09/03 07:14:51;;;;;;;1301.07;999.90;;;33.70;94.60;;;;;;5055861;28;20032;-69
2023/09/03 07:17:17;;;;;;;1127.82;999.90;;;33.80;94.80;;;;;;5053188;28;20025;-70
2023/09/03 07:19:44;;;;;;;1073.00;968.10;;;33.90;94.50;;;;;;5058178;28;20124;-70
2023/09/03 07:22:11;;;;;;;1052.90;949.97;;;34.10;94.50;;;;;;5050401;28;20177;-69
2023/09/03 07:24:37;;;;;;;1009.88;911.15;;;34.10;94.50;;;;;;5042840;28;20112;-66
2023/09/03 07:27:05;;;;;;;1132.35;999.90;;;34.20;94.20;;;;;;5035458;28;20040;-65
2023/09/03 07:29:31;;;;;;;1176.80;999.90;;;34.20;93.80;;;;;;5058063;28;20110;-65
2023/09/03 07:31:58;;;;;;;1169.75;999.90;;;34.10;93.50;;;;;;5065507;28;20013;-69
2023/09/03 07:34:24;;;;;;;1403.30;999.90;;;34.20;93.70;;;;;;5050812;28;20021;-70
2023/09/03 07:36:51;;;;;;;1515.57;999.90;;;34.10;93.80;;;;;;5049349;28;20722;-70
2023/09/03 07:39:17;;;;;;;1551.60;999.90;;;34.20;93.50;;;;;;5050650;28;20016;-69
2023/09/03 07:41:46;;;;;;;1397.70;999.90;;;34.30;93.20;;;;;;5049608;28;20013;-70
2023/09/03 07:44:12;;;;;;;1562.88;999.90;;;34.40;93.40;;;;;;5049621;28;20078;-69
2023/09/03 07:46:39;;;;;;;1571.60;999.90;;;34.40;93.50;;;;;;5050840;28;20040;-69
2023/09/03 07:49:06;;;;;;;1573.28;999.90;;;34.40;93.40;;;;;;5050711;28;20029;-69
2023/09/03 07:51:32;;;;;;;1580.90;999.90;;;34.40;93.00;;;;;;5049450;28;20025;-69
2023/09/03 07:53:59;;;;;;;1566.95;999.90;;;34.40;93.20;;;;;;5049285;28;20017;-70
2023/09/03 07:56:25;;;;;;;1574.00;999.90;;;34.40;93.30;;;;;;5051197;28;20108;-70
2023/09/03 07:58:52;;;;;;;1581.63;999.90;;;34.20;92.90;;;;;;5052191;28;20025;-69
2023/09/03 08:01:19;;;;;;;1583.13;999.90;;;34.30;93.60;;;;;;5051952;28;20025;-71
2023/09/03 08:03:46;;;;;;;1576.50;999.90;;;34.30;93.60;;;;;;5052414;28;20032;-70
2023/09/03 08:06:13;;;;;;;1581.68;999.90;;;34.30;93.40;;;;;;5052975;28;20021;-71
2023/09/03 08:08:40;;;;;;;1576.00;999.90;;;34.30;93.60;;;;;;5052742;28;20025;-71
2023/09/03 08:11:07;;;;;;;1565.15;999.90;;;34.30;93.40;;;;;;5052947;28;20497;-70
2023/09/03 08:13:33;;;;;;;1575.45;999.90;;;34.40;93.20;;;;;;5052998;28;20492;-71
2023/09/03 08:16:00;;;;;;;1558.25;999.90;;;34.50;93.50;;;;;;5054860;28;20021;-71
2023/09/03 08:18:26;;;;;;;1579.78;999.90;;;34.60;93.00;;;;;;5057147;28;20471;-71
2023/09/03 08:20:53;;;;;;;1572.75;999.90;;;34.60;92.70;;;;;;5055776;28;20385;-71
2023/09/03 08:23:20;;;;;;;1583.30;999.90;;;34.70;92.90;;;;;;5056874;28;20171;-70
2023/09/03 08:25:47;;;;;;;1555.57;999.90;;;34.70;92.70;;;;;;5056972;28;20032;-70
2023/09/03 08:28:13;;;;;;;1568.30;999.90;;;34.70;92.70;;;;;;5056772;28;20155;-70
2023/09/03 08:30:40;;;;;;;1578.22;999.90;;;34.60;92.50;;;;;;5056632;28;20017;-70
2023/09/03 08:33:06;;;;;;;1579.68;999.90;;;34.50;92.50;;;;;;5057093;28;20082;-70
2023/09/03 08:35:36;;;;;;;1569.28;999.90;;;34.50;92.00;;;;;;5056802;28;20035;-71
2023/09/03 08:38:03;;;;;;;1580.40;999.90;;;34.50;92.80;;;;;;5056614;28;20021;-70
2023/09/03 08:40:32;;;;;;;1554.72;999.90;;;34.50;93.00;;;;;;5056641;28;20117;-71
2023/09/03 08:43:01;;;;;;;1563.28;999.90;;;34.30;93.60;;;;;;5056746;28;20029;-71
2023/09/03 08:45:31;;;;;;;1550.47;999.90;;;34.20;94.00;;;;;;5056429;28;20017;-71
2023/09/03 08:47:58;;;;;;;1554.68;999.90;;;34.20;94.00;;;;;;5056230;28;20406;-71
2023/09/03 08:50:25;;;;;;;1564.65;999.90;;;34.10;93.70;;;;;;5056526;28;20013;-70
2023/09/03 08:52:53;;;;;;;1553.18;999.90;;;34.10;94.20;;;;;;5056300;28;20071;-70
2023/09/03 08:55:19;;;;;;;1547.57;999.90;;;34.10;94.40;;;;;;5056465;28;20426;-70
2023/09/03 08:57:46;;;;;;;1579.80;999.90;;;34.10;94.00;;;;;;5056412;28;20029;-70
2023/09/03 09:00:14;;;;;;;1555.78;999.90;;;34.10;94.00;;;;;;5056219;28;20028;-70
2023/09/03 09:02:43;;;;;;;1563.75;999.90;;;34.10;93.70;;;;;;5056180;28;20482;-70
2023/09/03 09:05:11;;;;;;;1553.32;999.90;;;34.20;93.90;;;;;;5056162;28;20033;-71
2023/09/03 09:07:39;;;;;;;1574.65;999.90;;;34.20;93.60;;;;;;5056007;28;20028;-71
2023/09/03 09:10:10;;;;;;;1585.05;999.90;;;34.20;93.90;;;;;;5056261;28;20024;-71
2023/09/03 09:12:46;;;;;;;1560.00;999.90;;;34.20;94.00;;;;;;5056130;28;20025;-71
2023/09/03 09:15:13;;;;;;;1587.20;999.90;;;34.20;94.20;;;;;;5056050;28;20028;-70
2023/09/03 09:17:41;;;;;;;1568.97;999.90;;;34.20;94.20;;;;;;5055952;28;20021;-70
2023/09/03 09:20:09;;;;;;;1571.97;999.90;;;34.20;93.90;;;;;;5055780;28;20029;-70
2023/09/03 09:22:46;;;;;;;1560.15;999.90;;;34.20;94.40;;;;;;5055917;28;20100;-71
2023/09/03 09:25:22;;;;;;;1558.72;999.90;;;34.20;94.50;;;;;;5055890;28;20359;-71
2023/09/03 09:27:51;;;;;;;1549.05;999.90;;;34.20;94.60;;;;;;5054673;28;20065;-71
2023/09/03 09:30:19;;;;;;;1535.65;999.90;;;34.10;94.80;;;;;;5055797;28;20021;-71
2023/09/03 09:32:46;;;;;;;1566.88;999.90;;;33.90;94.90;;;;;;5055524;28;20549;-71
2023/09/03 09:35:24;;;;;;;1554.38;999.90;;;33.80;95.20;;;;;;5055760;28;20033;-70
2023/09/03 09:37:51;;;;;;;1538.45;999.90;;;33.80;94.90;;;;;;5055651;28;20047;-71
2023/09/03 09:40:27;;;;;;;1549.15;999.90;;;33.80;95.00;;;;;;5055458;28;20359;-71
2023/09/03 09:42:56;;;;;;;1538.80;999.90;;;33.80;94.80;;;;;;5055402;28;20099;-72
2023/09/03 09:45:23;;;;;;;1562.07;999.90;;;33.80;94.80;;;;;;5055258;28;20083;-71
2023/09/03 09:48:08;;;;;;;1579.20;999.90;;;33.70;94.90;;;;;;5055208;28;20049;-71
2023/09/03 09:50:38;;;;;;;1576.78;999.90;;;33.70;95.40;;;;;;5055224;28;20017;-68
2023/09/03 09:53:06;;;;;;;1512.38;999.90;;;33.70;95.60;;;;;;5055267;28;20036;-71
2023/09/03 09:55:33;;;;;;;1516.35;999.90;;;33.70;95.70;;;;;;5055177;28;20037;-71
2023/09/03 09:58:01;;;;;;;1739.82;999.90;;;33.60;95.80;;;;;;5054966;28;20029;-71
2023/09/03 10:00:41;;;;;;;1709.25;999.90;;;33.60;96.20;;;;;;5055050;28;20493;-71
2023/09/03 10:03:11;;;;;;;1586.72;999.90;;;33.60;96.50;;;;;;5054870;28;20039;-71
2023/09/03 10:05:48;;;;;;;1809.78;999.90;;;33.50;96.40;;;;;;5054132;28;20135;-71
2023/09/03 10:08:16;;;;;;;1665.00;999.90;;;33.50;96.50;;;;;;5054457;28;20057;-70
2023/09/03 10:10:43;;;;;;;1608.60;999.90;;;33.50;96.70;;;;;;5054237;28;20103;-70
2023/09/03 10:13:10;;;;;;;1563.07;999.90;;;33.50;96.80;;;;;;5054097;28;20025;-70
2023/09/03 10:15:41;;;;;;;1593.90;999.90;;;33.40;96.70;;;;;;5053937;28;20032;-69
2023/09/03 10:18:08;;;;;;;1636.57;999.90;;;33.30;96.70;;;;;;5053978;28;20033;-68
2023/09/03 10:20:37;;;;;;;1620.10;999.90;;;33.30;96.80;;;;;;5054052;28;20033;-69
2023/09/03 10:23:04;;;;;;;1584.00;999.90;;;33.20;96.60;;;;;;5053843;28;20158;-69
2023/09/03 10:25:33;;;;;;;1623.35;999.90;;;33.30;96.80;;;;;;5053781;28;20029;-70
2023/09/03 10:28:05;;;;;;;1615.05;999.90;;;33.20;96.90;;;;;;5053982;28;20025;-68
2023/09/03 10:30:38;;;;;;;1583.57;999.90;;;33.20;97.00;;;;;;5053879;28;20043;-69
2023/09/03 10:33:08;;;;;;;1545.90;999.90;;;33.20;97.40;;;;;;5053425;28;20025;-68
2023/09/03 10:35:34;;;;;;;1554.78;999.90;;;33.10;97.60;;;;;;5053728;28;20103;-66
2023/09/03 10:38:01;;;;;;;1536.18;999.90;;;33.10;97.80;;;;;;5053520;28;20029;-66
2023/09/03 10:40:29;;;;;;;1575.45;999.90;;;33.00;97.70;;;;;;5053577;28;20027;-67
2023/09/03 10:43:18;;;;;;;1561.50;999.90;;;32.90;97.90;;;;;;5051097;28;20037;-66
2023/09/03 10:46:05;;;;;;;1568.45;999.90;;;32.90;98.00;;;;;;5043685;28;20036;-65
2023/09/03 10:48:34;;;;;;;1550.35;999.90;;;32.70;98.60;;;;;;5054318;28;20185;-70
2023/09/03 10:51:01;;;;;;;1585.30;999.90;;;32.70;98.60;;;;;;5047426;28;20045;-66
2023/09/03 10:53:41;;;;;;;1562.93;999.90;;;32.70;98.60;;;;;;5040962;28;20029;-70
2023/09/03 10:56:18;;;;;;;1516.45;999.90;;;32.60;99.00;;;;;;5053392;28;20028;-68
2023/09/03 10:58:56;;;;;;;1553.65;999.90;;;32.50;99.10;;;;;;5053635;28;20037;-67
2023/09/03 11:01:30;;;;;;;1537.07;999.90;;;32.50;99.10;;;;;;5053306;28;20374;-73
2023/09/03 11:03:58;;;;;;;1401.82;999.90;;;32.40;99.30;;;;;;5049675;28;20449;-67
2023/09/03 11:06:26;;;;;;;1473.45;999.90;;;32.40;99.70;;;;;;5033644;28;20025;-67
2023/09/03 11:09:05;;;;;;;1631.47;999.90;;;32.30;99.90;;;;;;5049378;28;20070;-68
2023/09/03 11:11:35;;;;;;;1620.47;999.90;;;32.30;99.90;;;;;;5052396;28;20040;-68
2023/09/03 11:14:02;;;;;;;1556.18;999.90;;;32.30;99.90;;;;;;5053563;28;20021;-68
2023/09/03 11:16:37;;;;;;;1550.22;999.90;;;32.20;99.90;;;;;;5053117;28;20029;-67
2023/09/03 11:19:07;;;;;;;1575.13;999.90;;;32.10;99.90;;;;;;5036663;28;20044;-67
2023/09/03 11:21:35;;;;;;;1504.00;999.90;;;32.00;99.90;;;;;;5033710;28;20040;-69
2023/09/03 11:24:02;;;;;;;1317.47;999.90;;;31.90;99.90;;;;;;5034218;28;20387;-68
2023/09/03 11:26:31;;;;;;;1376.45;999.90;;;31.90;99.90;;;;;;5045097;28;20033;-68
2023/09/03 11:28:58;;;;;;;1415.28;999.90;;;31.90;99.90;;;;;;5049148;28;20033;-68
2023/09/03 11:31:25;;;;;;;1374.78;999.90;;;31.90;99.90;;;;;;5053093;28;20019;-69
2023/09/03 11:33:52;;;;;;;1353.20;999.90;;;31.80;99.90;;;;;;5053261;28;20371;-69
2023/09/03 11:36:21;;;;;;;1245.82;999.90;;;31.80;99.90;;;;;;5053097;28;20036;-69
2023/09/03 11:38:49;;;;;;;1400.82;999.90;;;31.60;99.90;;;;;;5042452;28;20056;-68
2023/09/03 11:41:19;;;;;;;1329.00;999.90;;;31.60;99.90;;;;;;5039982;28;20039;-68
2023/09/03 11:43:46;;;;;;;1252.30;999.90;;;31.60;99.90;;;;;;5053006;28;20064;-70
2023/09/03 11:46:14;;;;;;;1510.57;999.90;;;31.50;99.90;;;;;;5052508;28;20024;-71
2023/09/03 11:48:47;;;;;;;1561.53;999.90;;;31.40;99.90;;;;;;5052564;28;20400;-69
2023/09/03 11:51:30;;;;;;;1541.00;999.90;;;31.30;99.90;;;;;;5051778;28;20021;-68
2023/09/03 11:53:57;;;;;;;1458.20;999.90;;;31.30;99.90;;;;;;5033659;28;20650;-72
2023/09/03 11:56:25;;;;;;;1377.35;999.90;;;31.20;99.90;;;;;;5033173;28;20025;-67
2023/09/03 11:58:57;;;;;;;1479.18;999.90;;;31.20;99.90;;;;;;5032253;28;20029;-67
2023/09/03 12:01:23;;;;;;;;;;;31.10;99.90;;;;;;5052993;23;20057;-68
2023/09/03 12:03:51;;;;;;;1113.72;997.50;;;31.10;99.90;;;;;;5032277;28;19905;-68
2023/09/03 12:06:18;;;;;;;1354.40;999.90;;;31.00;99.90;;;;;;5031982;28;20021;-67
2023/09/03 12:08:45;;;;;;;1355.28;999.90;;;30.90;99.90;;;;;;5032224;28;20029;-68
2023/09/03 12:11:12;;;;;;;640.60;574.80;;;30.90;99.90;;;;;;5032442;28;20033;-68
2023/09/03 12:13:40;;;;;;;362.33;325.20;;;30.90;99.90;;;;;;5032337;28;20025;-68